createdAt,value
2018-04-13T00:01:21.880Z,99.90
2018-04-13T00:03:48.278Z,99.90
2018-04-13T00:06:14.463Z,99.90
2018-04-13T00:08:40.623Z,99.90
2018-04-13T00:11:07.591Z,99.90
2018-04-13T00:13:34.486Z,99.90
2018-04-13T00:16:00.667Z,99.90
2018-04-13T00:18:27.566Z,99.90
2018-04-13T00:23:21.674Z,99.90
2018-04-13T00:25:47.854Z,99.90
2018-04-13T00:30:41.945Z,99.90
2018-04-13T00:33:08.387Z,99.90
2018-04-13T00:38:02.446Z,99.90
2018-04-13T00:40:28.626Z,99.90
2018-04-13T00:42:54.794Z,99.90
2018-04-13T00:45:20.946Z,99.90
2018-04-13T00:47:47.118Z,99.90
2018-04-13T00:50:13.325Z,99.90
2018-04-13T00:52:39.458Z,99.90
2018-04-13T00:55:05.614Z,99.90
2018-04-13T00:57:31.795Z,99.90
2018-04-13T00:59:57.951Z,99.90
2018-04-13T01:02:24.107Z,99.90
2018-04-13T01:04:50.528Z,99.90
2018-04-13T01:07:16.679Z,99.90
2018-04-13T01:14:38.658Z,99.90
2018-04-13T01:17:04.804Z,99.90
2018-04-13T01:19:30.986Z,99.90
2018-04-13T01:21:57.162Z,99.90
2018-04-13T01:24:23.327Z,99.90
2018-04-13T01:29:17.413Z,99.90
2018-04-13T01:31:43.652Z,99.90
2018-04-13T01:36:38.026Z,99.90
2018-04-13T01:39:05.010Z,99.90
2018-04-13T01:46:26.994Z,99.90
2018-04-13T01:51:21.083Z,99.90
2018-04-13T01:56:15.178Z,99.90
2018-04-13T01:58:41.333Z,99.90
2018-04-13T02:03:35.411Z,99.90
2018-04-13T02:06:01.561Z,99.90
2018-04-13T02:08:27.715Z,99.90
2018-04-13T02:10:53.903Z,99.90
2018-04-13T02:13:20.450Z,99.90
2018-04-13T02:15:46.635Z,99.90
2018-04-13T02:20:40.719Z,99.90
2018-04-13T02:25:34.846Z,99.90
2018-04-13T02:30:28.890Z,99.90
2018-04-13T02:32:55.100Z,99.90
2018-04-13T02:35:21.499Z,99.90
2018-04-13T02:37:47.650Z,99.90
2018-04-13T02:42:41.766Z,99.90
2018-04-13T02:45:07.944Z,99.90
2018-04-13T02:47:34.118Z,99.90
2018-04-13T02:52:28.239Z,99.90
2018-04-13T02:59:50.283Z,99.90
2018-04-13T03:02:16.454Z,99.90
2018-04-13T03:04:42.612Z,99.90
2018-04-13T03:07:08.780Z,99.90
2018-04-13T03:09:34.954Z,99.90
2018-04-13T03:12:01.122Z,99.90
2018-04-13T03:14:27.285Z,99.90
2018-04-13T03:19:21.395Z,99.90
2018-04-13T03:21:47.538Z,99.90
2018-04-13T03:24:14.448Z,99.90
2018-04-13T03:26:40.646Z,99.90
2018-04-13T03:29:06.814Z,99.90
2018-04-13T03:31:33.130Z,99.90
2018-04-13T03:33:59.278Z,99.90
2018-04-13T03:36:25.628Z,99.90
2018-04-13T03:38:51.807Z,99.90
2018-04-13T03:41:18.723Z,99.90
2018-04-13T03:43:44.886Z,99.90
2018-04-13T03:46:11.094Z,99.90
2018-04-13T03:48:37.260Z,99.90
2018-04-13T03:51:04.182Z,99.90
2018-04-13T03:53:31.087Z,99.90
2018-04-13T03:55:57.239Z,99.90
2018-04-13T03:58:23.434Z,99.90
2018-04-13T04:00:49.610Z,99.90
2018-04-13T04:03:15.757Z,99.90
2018-04-13T04:05:41.941Z,99.90
2018-04-13T04:08:08.126Z,99.90
2018-04-13T04:10:34.298Z,99.90
2018-04-13T04:13:01.186Z,99.90
2018-04-13T04:15:27.360Z,99.90
2018-04-13T04:17:53.540Z,99.90
2018-04-13T04:20:32.073Z,99.90
2018-04-13T04:23:11.787Z,99.90
2018-04-13T04:25:50.291Z,99.90
2018-04-13T04:28:16.510Z,99.90
2018-04-13T04:30:43.398Z,99.90
2018-04-13T04:33:09.570Z,99.90
2018-04-13T04:35:36.515Z,99.90
2018-04-13T04:38:03.734Z,99.90
2018-04-13T04:40:29.926Z,99.90
2018-04-13T04:42:56.074Z,99.90
2018-04-13T04:45:22.232Z,99.90
2018-04-13T04:47:48.414Z,99.90
2018-04-13T04:50:15.333Z,99.90
2018-04-13T04:52:41.526Z,99.90
2018-04-13T04:55:07.715Z,99.90
2018-04-13T04:57:33.880Z,99.90
2018-04-13T05:00:00.058Z,99.90
2018-04-13T05:02:26.221Z,99.90
2018-04-13T05:04:52.379Z,99.90
2018-04-13T05:07:19.335Z,99.90
2018-04-13T05:09:45.542Z,99.90
2018-04-13T05:12:12.436Z,99.90
2018-04-13T05:14:38.579Z,99.90
2018-04-13T05:17:04.806Z,99.90
2018-04-13T05:19:30.999Z,99.90
2018-04-13T05:21:57.159Z,99.90
2018-04-13T05:24:23.326Z,99.90
2018-04-13T05:26:49.484Z,99.90
2018-04-13T05:29:15.870Z,99.90
2018-04-13T05:31:42.036Z,99.90
2018-04-13T05:34:08.272Z,99.90
2018-04-13T05:36:34.461Z,99.90
2018-04-13T05:39:00.830Z,99.90
2018-04-13T05:41:26.982Z,99.90
2018-04-13T05:43:53.130Z,99.90
2018-04-13T05:46:19.312Z,99.90
2018-04-13T05:48:45.484Z,99.90
2018-04-13T05:51:11.640Z,99.90
2018-04-13T05:56:06.463Z,99.90
2018-04-13T06:01:00.518Z,99.90
2018-04-13T06:03:26.869Z,99.90
2018-04-13T06:05:53.042Z,99.90
2018-04-13T06:08:19.974Z,99.90
2018-04-13T06:10:46.146Z,99.90
2018-04-13T06:13:13.051Z,99.90
2018-04-13T06:15:39.211Z,99.90
2018-04-13T06:18:06.131Z,99.90
2018-04-13T06:20:32.317Z,99.90
2018-04-13T06:22:58.491Z,99.90
2018-04-13T06:25:24.635Z,99.90
2018-04-13T06:27:50.790Z,99.90
2018-04-13T06:30:17.495Z,99.90
2018-04-13T06:32:43.652Z,99.90
2018-04-13T06:35:09.819Z,99.90
2018-04-13T06:37:35.989Z,99.90
2018-04-13T06:42:30.213Z,99.90
2018-04-13T06:44:56.350Z,99.90
2018-04-13T06:47:22.531Z,99.90
2018-04-13T06:52:16.591Z,99.90
2018-04-13T06:54:42.757Z,99.90
2018-04-13T06:59:36.835Z,99.90
2018-04-13T07:02:03.028Z,99.90
2018-04-13T07:04:29.203Z,99.90
2018-04-13T07:09:23.320Z,99.90
2018-04-13T07:11:49.470Z,99.90
2018-04-13T07:16:43.558Z,99.90
2018-04-13T07:21:37.638Z,99.90
2018-04-13T07:24:03.811Z,99.90
2018-04-13T07:26:29.990Z,99.90
2018-04-13T07:28:56.142Z,99.90
2018-04-13T07:31:22.721Z,99.90
2018-04-13T07:33:48.911Z,99.90
2018-04-13T07:36:15.149Z,99.90
2018-04-13T07:38:41.294Z,99.90
2018-04-13T07:41:07.640Z,99.90
2018-04-13T07:43:34.087Z,99.90
2018-04-13T07:45:59.970Z,99.90
2018-04-13T07:48:26.106Z,99.90
2018-04-13T07:50:52.249Z,99.90
2018-04-13T07:53:18.417Z,99.90
2018-04-13T07:55:44.595Z,99.90
2018-04-13T07:58:10.758Z,99.90
2018-04-13T08:00:36.903Z,99.90
2018-04-13T08:03:03.035Z,99.90
2018-04-13T08:05:29.178Z,99.90
2018-04-13T08:10:23.264Z,99.90
2018-04-13T08:12:49.426Z,99.90
2018-04-13T08:15:15.569Z,99.90
2018-04-13T08:20:09.905Z,99.90
2018-04-13T08:22:36.047Z,99.90
2018-04-13T08:25:02.222Z,99.90
2018-04-13T08:27:28.379Z,99.90
2018-04-13T08:32:23.101Z,99.90
2018-04-13T08:37:17.182Z,99.90
2018-04-13T08:39:43.337Z,99.90
2018-04-13T08:42:09.762Z,99.90
2018-04-13T08:44:35.879Z,99.90
2018-04-13T08:47:02.042Z,99.90
2018-04-13T08:51:56.107Z,99.90
2018-04-13T08:54:22.297Z,99.90
2018-04-13T08:56:48.513Z,99.90
2018-04-13T08:59:14.679Z,99.90
2018-04-13T09:01:40.868Z,99.90
2018-04-13T09:04:07.019Z,99.90
2018-04-13T09:09:01.110Z,99.90
2018-04-13T09:11:27.286Z,99.90
2018-04-13T09:13:53.437Z,99.90
2018-04-13T09:21:15.473Z,99.90
2018-04-13T09:23:41.654Z,99.90
2018-04-13T09:26:07.825Z,99.90
2018-04-13T09:28:34.023Z,99.90
2018-04-13T09:31:00.202Z,99.90
2018-04-13T09:35:54.336Z,99.90
2018-04-13T09:38:20.485Z,99.90
2018-04-13T09:40:46.686Z,99.90
2018-04-13T09:43:13.055Z,99.90
2018-04-13T09:45:39.220Z,99.90
2018-04-13T09:48:05.378Z,99.90
2018-04-13T09:50:32.307Z,99.90
2018-04-13T09:52:58.458Z,97.60
2018-04-13T09:55:25.364Z,98.50
2018-04-13T09:57:51.530Z,97.20
2018-04-13T10:00:24.694Z,97.50
2018-04-13T10:05:46.029Z,97.40
2018-04-13T10:08:12.198Z,99.00
2018-04-13T10:10:39.095Z,98.60
2018-04-13T10:13:05.415Z,97.90
2018-04-13T10:15:31.560Z,98.10
2018-04-13T10:17:57.731Z,98.30
2018-04-13T10:20:23.898Z,99.50
2018-04-13T10:22:50.053Z,99.90
2018-04-13T10:25:16.242Z,99.90
2018-04-13T10:27:42.403Z,99.90
2018-04-13T10:30:08.671Z,99.90
2018-04-13T10:32:34.834Z,99.90
2018-04-13T10:35:01.765Z,99.90
2018-04-13T10:37:27.921Z,99.90
2018-04-13T10:39:54.075Z,99.90
2018-04-13T10:42:20.264Z,99.90
2018-04-13T10:44:46.666Z,99.90
2018-04-13T10:47:12.826Z,99.90
2018-04-13T10:49:39.001Z,99.90
2018-04-13T10:54:33.079Z,99.90
2018-04-13T10:59:27.170Z,99.90
2018-04-13T11:01:53.342Z,99.90
2018-04-13T11:04:19.499Z,99.90
2018-04-13T11:06:45.638Z,99.90
2018-04-13T11:09:11.838Z,99.90
2018-04-13T11:14:05.925Z,99.90
2018-04-13T11:19:06.983Z,99.90
2018-04-13T11:21:33.167Z,99.90
2018-04-13T11:23:59.400Z,99.90
2018-04-13T11:26:25.598Z,99.90
2018-04-13T11:28:51.758Z,99.90
2018-04-13T11:31:17.961Z,99.90
2018-04-13T11:33:44.435Z,99.90
2018-04-13T11:36:10.618Z,99.90
2018-04-13T11:38:36.761Z,99.90
2018-04-13T11:41:02.907Z,99.90
2018-04-13T11:50:53.037Z,99.90
2018-04-13T11:53:19.178Z,99.90
2018-04-13T11:55:45.359Z,99.90
2018-04-13T11:58:11.507Z,99.90
2018-04-13T12:00:37.670Z,99.90
2018-04-13T12:03:04.090Z,99.90
2018-04-13T12:05:30.221Z,99.90
2018-04-13T12:07:56.391Z,99.90
2018-04-13T12:10:22.581Z,99.90
2018-04-13T12:12:48.747Z,99.90
2018-04-13T12:15:14.905Z,99.90
2018-04-13T12:17:41.043Z,99.90
2018-04-13T12:22:35.093Z,99.90
2018-04-13T12:25:01.234Z,99.90
2018-04-13T12:27:27.390Z,99.90
2018-04-13T12:29:53.586Z,99.90
2018-04-13T12:32:19.759Z,99.90
2018-04-13T12:34:45.939Z,99.90
2018-04-13T12:37:12.088Z,99.90
2018-04-13T12:39:38.273Z,99.90
2018-04-13T12:42:04.430Z,99.90
2018-04-13T12:44:30.585Z,99.90
2018-04-13T12:46:56.995Z,99.90
2018-04-13T12:49:23.166Z,99.90
2018-04-13T12:51:49.322Z,99.90
2018-04-13T12:54:15.542Z,99.90
2018-04-13T12:56:41.712Z,99.90
2018-04-13T13:01:35.783Z,99.90
2018-04-13T13:04:01.976Z,99.90
2018-04-13T13:06:28.151Z,99.90
2018-04-13T13:08:54.309Z,99.90
2018-04-13T13:11:20.454Z,99.90
2018-04-13T13:13:47.351Z,99.90
2018-04-13T13:16:13.567Z,99.90
2018-04-13T13:18:39.730Z,99.90
2018-04-13T13:21:05.889Z,99.90
2018-04-13T13:23:32.055Z,99.90
2018-04-13T13:25:58.960Z,99.90
2018-04-13T13:28:25.878Z,99.90
2018-04-13T13:30:52.033Z,99.90
2018-04-13T13:33:18.192Z,99.90
2018-04-13T13:35:45.114Z,99.90
2018-04-13T13:38:11.299Z,99.90
2018-04-13T13:43:05.354Z,99.90
2018-04-13T13:45:31.498Z,99.90
2018-04-13T13:47:57.821Z,99.90
2018-04-13T13:50:23.972Z,99.90
2018-04-13T13:52:50.203Z,99.90
2018-04-13T13:55:16.521Z,99.90
2018-04-13T13:57:42.682Z,99.90
2018-04-13T14:00:09.626Z,99.90
2018-04-13T14:02:35.820Z,99.90
2018-04-13T14:05:02.262Z,99.90
2018-04-13T14:07:28.487Z,99.90
2018-04-13T14:09:54.674Z,99.90
2018-04-13T14:14:48.803Z,99.90
2018-04-13T14:17:14.927Z,99.90
2018-04-13T14:19:41.080Z,99.90
2018-04-13T14:29:30.967Z,99.90
2018-04-13T14:31:57.198Z,99.90
2018-04-13T14:34:23.347Z,99.90
2018-04-13T14:36:49.533Z,99.90
2018-04-13T14:39:15.706Z,99.90
2018-04-13T14:41:41.862Z,99.90
2018-04-13T14:46:35.937Z,99.90
2018-04-13T14:49:02.310Z,99.90
2018-04-13T15:01:20.111Z,99.90
2018-04-13T15:03:46.319Z,99.90
2018-04-13T15:06:12.482Z,99.90
2018-04-13T15:08:38.646Z,99.90
2018-04-13T15:18:28.601Z,99.90
2018-04-13T15:23:22.698Z,99.90
2018-04-13T15:25:48.902Z,99.90
2018-04-13T15:28:15.106Z,99.90
2018-04-13T15:30:41.275Z,99.90
2018-04-13T15:33:07.697Z,99.90
2018-04-13T15:35:34.034Z,99.90
2018-04-13T15:38:00.202Z,99.90
2018-04-13T15:40:26.437Z,99.90
2018-04-13T15:42:52.554Z,99.90
2018-04-13T15:55:10.639Z,99.90
2018-04-13T16:09:56.418Z,99.90
2018-04-13T16:17:18.453Z,99.90
2018-04-13T16:19:44.662Z,99.90
2018-04-13T16:22:10.830Z,99.90
2018-04-13T16:24:37.054Z,99.90
2018-04-13T16:27:03.255Z,99.90
2018-04-13T16:29:29.428Z,99.90
2018-04-13T16:36:51.763Z,99.90
2018-04-13T16:39:17.987Z,99.90
2018-04-13T16:46:40.038Z,99.90
2018-04-13T16:49:06.225Z,99.90
2018-04-13T16:51:32.611Z,99.90
2018-04-13T16:56:26.689Z,99.90
2018-04-13T16:58:52.906Z,99.90
2018-04-13T17:01:19.110Z,99.90
2018-04-13T17:08:41.157Z,99.90
2018-04-13T17:13:35.260Z,99.90
2018-04-13T17:16:01.482Z,99.90
2018-04-13T17:18:27.674Z,99.90
2018-04-13T17:20:53.871Z,99.90
2018-04-13T17:23:20.057Z,99.90
2018-04-13T17:25:46.291Z,99.90
2018-04-13T17:28:12.454Z,99.90
2018-04-13T17:30:38.657Z,99.90
2018-04-13T17:33:04.798Z,99.90
2018-04-13T17:35:31.010Z,99.90
2018-04-13T17:37:57.328Z,99.90
2018-04-13T17:42:51.415Z,99.90
2018-04-13T17:47:45.506Z,99.90
2018-04-13T17:50:11.654Z,99.90
2018-04-13T17:52:37.977Z,99.90
2018-04-13T17:55:04.126Z,99.90
2018-04-13T17:59:58.219Z,99.90
2018-04-13T18:04:52.304Z,99.90
2018-04-13T18:09:46.436Z,99.90
2018-04-13T18:12:12.593Z,99.90
2018-04-13T18:17:06.661Z,99.90
2018-04-13T18:19:32.816Z,99.90
2018-04-13T18:21:58.990Z,99.90
2018-04-13T18:24:25.130Z,99.90
2018-04-13T18:26:51.270Z,99.90
2018-04-13T18:29:17.471Z,99.90
2018-04-13T18:31:43.724Z,99.90
2018-04-13T18:34:09.882Z,99.90
2018-04-13T18:36:36.031Z,99.90
2018-04-13T18:39:02.435Z,99.90
2018-04-13T18:41:28.574Z,99.90
2018-04-13T18:43:54.744Z,99.90
2018-04-13T18:48:48.829Z,99.90
2018-04-13T18:51:14.989Z,99.90
2018-04-13T18:53:41.404Z,99.90
2018-04-13T18:56:07.533Z,99.90
2018-04-13T18:58:33.726Z,99.90
2018-04-13T19:00:59.935Z,99.90
2018-04-13T19:03:26.097Z,99.90
2018-04-13T19:05:52.257Z,99.90
2018-04-13T19:08:18.413Z,99.90
2018-04-13T19:10:44.585Z,99.90
2018-04-13T19:13:10.792Z,99.90
2018-04-13T19:15:36.950Z,99.90
2018-04-13T19:18:03.262Z,99.90
2018-04-13T19:22:57.325Z,99.90
2018-04-13T19:25:23.522Z,99.90
2018-04-13T19:35:13.438Z,99.90
2018-04-13T19:37:39.646Z,99.90
2018-04-13T19:40:05.823Z,99.90
2018-04-13T19:45:00.127Z,99.90
2018-04-13T19:47:26.300Z,99.90
2018-04-13T19:52:20.377Z,99.90
2018-04-13T19:54:46.779Z,99.90
2018-04-13T19:57:12.927Z,99.90
2018-04-13T19:59:39.078Z,99.90
2018-04-13T20:02:05.289Z,99.90
2018-04-13T20:04:31.455Z,99.90
2018-04-13T20:09:25.536Z,99.90
2018-04-13T20:11:51.687Z,99.90
2018-04-13T20:16:49.662Z,99.90
2018-04-13T20:19:15.849Z,99.90
2018-04-13T20:24:09.923Z,99.90
2018-04-13T20:26:36.105Z,99.90
2018-04-13T20:29:02.294Z,99.90
2018-04-13T20:33:56.385Z,99.90
2018-04-13T20:36:22.534Z,99.90
2018-04-13T20:41:17.798Z,99.90
2018-04-13T20:43:43.969Z,99.90
2018-04-13T20:46:10.105Z,99.90
2018-04-13T20:48:36.254Z,99.90
2018-04-13T20:51:02.442Z,99.90
2018-04-13T20:53:28.639Z,99.90
2018-04-13T20:55:55.067Z,99.90
2018-04-13T20:58:21.248Z,99.90
2018-04-13T21:00:47.409Z,99.90
2018-04-13T21:03:13.573Z,99.90
2018-04-13T21:08:07.650Z,99.90
2018-04-13T21:10:33.818Z,99.90
2018-04-13T21:15:27.902Z,99.90
2018-04-13T21:17:54.056Z,99.90
2018-04-13T21:22:48.170Z,99.90
2018-04-13T21:27:42.344Z,99.90
2018-04-13T21:32:36.522Z,99.90
2018-04-13T21:35:03.024Z,99.90
2018-04-13T21:39:57.160Z,99.90
2018-04-13T21:42:23.322Z,99.90
2018-04-13T21:44:49.475Z,99.90
2018-04-13T21:49:43.538Z,99.90
2018-04-13T21:52:09.694Z,99.90
2018-04-13T21:54:36.491Z,99.90
2018-04-13T21:57:02.867Z,99.90
2018-04-13T21:59:29.003Z,99.90
2018-04-13T22:01:55.138Z,99.90
2018-04-13T22:04:21.305Z,99.90
2018-04-13T22:09:15.370Z,99.90
2018-04-13T22:11:41.539Z,99.90
2018-04-13T22:16:41.813Z,99.90
2018-04-13T22:21:35.908Z,99.90
2018-04-13T22:26:29.974Z,99.90
2018-04-13T22:28:56.122Z,99.90
2018-04-13T22:31:22.286Z,99.90
2018-04-13T22:36:16.339Z,99.90
2018-04-13T22:38:42.503Z,99.90
2018-04-13T22:41:08.927Z,99.90
2018-04-13T22:43:42.071Z,99.90
2018-04-13T22:46:08.234Z,99.90
2018-04-13T22:51:02.362Z,99.90
2018-04-13T22:53:28.559Z,99.90
2018-04-13T22:55:54.718Z,99.90
2018-04-13T22:58:21.050Z,99.90
2018-04-13T23:00:47.195Z,99.90
2018-04-13T23:05:41.267Z,99.90
2018-04-13T23:08:07.431Z,99.90
2018-04-13T23:15:29.405Z,99.90
2018-04-13T23:17:55.555Z,99.90
2018-04-13T23:22:49.686Z,99.90
2018-04-13T23:30:11.739Z,99.90
2018-04-13T23:32:37.890Z,99.90
2018-04-13T23:35:04.066Z,99.90
2018-04-13T23:37:30.235Z,99.90
2018-04-13T23:39:56.391Z,99.90
2018-04-13T23:44:50.874Z,99.90
2018-04-13T23:47:17.119Z,99.90
2018-04-13T23:52:11.239Z,99.90
2018-04-13T23:59:33.620Z,99.90
